SondeTracker

Meteorological Radiosondes Database

Operations

Sounding was ended - last measurement: 2022-12-07 12:59:48z

MAP
About Radiosonde

Number: D22042356 ([BC]22042356)

Launch Site: Greensboro [NC] (US)

Type: DFM

AUX: NO

Frequency: 403.400 MHz

Max Speed: 185 km/h at 12062 m

Average Speed: 92.08 km/h

Max Altitude: 29534 m

Average Ascent Speed: 5.76 m/s

Average Descent Speed: 14.84 m/s

Status: UNKNOWN

Status Changes
Launch Site Type AUX Frequency Status Finder Landing Point Description Changes made by
APRS Statistics

Received Frames: 400

First Frame [UTC]: 2022-12-07 11:05:47z

Last Frame [UTC]: 2022-12-07 12:59:48z

Receivers: KG4IFE-1, W4DEX-14, W4KZK-14

Flight Time: 01:54:01 h

Distance From First Measurement: 152.49 km

Nearest City: Wendell [NC] (US) [10.24 km]

Nearest Hunter: [0.00 km]

Ground Altitude: 84 m

Distance from QTH: 0.00 km

APRS Data
Receiver Number Date/Time [UTC] φ λ Course [°] Speed [km/h] Altitude [m] Description
W4DEX-14D220423562022-12-07 12:59:4835.7887-78.282953312113Clb=-9.6m/s Type=DFM17 ser=[BC]22042356 Details on http://radiosondy.info
W4DEX-14D220423562022-12-07 12:59:3335.788-78.284159312271Clb=-10.4m/s Type=DFM17 ser=[BC]22042356 Details on http://radiosondy.info
W4DEX-14D220423562022-12-07 12:59:1735.7875-78.285468282435Clb=-10.3m/s Type=DFM17 ser=[BC]22042356 Details on http://radiosondy.info
W4DEX-14D220423562022-12-07 12:59:0235.7871-78.286771282563Clb=-10.2m/s Type=DFM17 ser=[BC]22042356 Details on http://radiosondy.info
W4DEX-14D220423562022-12-07 12:58:4735.7867-78.287971282682Clb=-7.4m/s Type=DFM17 ser=[BC]22042356 Details on http://radiosondy.info
W4DEX-14D220423562022-12-07 12:58:3335.7864-78.289171262794Clb=-7.0m/s Type=DFM17 ser=[BC]22042356 Details on http://radiosondy.info
W4DEX-14D220423562022-12-07 12:58:1735.7861-78.290269262907Clb=-7.5m/s Type=DFM17 ser=[BC]22042356 Details on http://radiosondy.info
W4DEX-14D220423562022-12-07 12:58:1435.7817-78.308379634040Clb=-6.7m/s Type=DFM17 ser=[BC]22042356 Details on http://radiosondy.info
W4DEX-14D220423562022-12-07 12:57:5935.7812-78.311280654149Clb=-7.2m/s Type=DFM17 ser=[BC]22042356 Details on http://radiosondy.info
W4DEX-14D220423562022-12-07 12:57:5835.7808-78.314183614256Clb=-6.8m/s Type=DFM17 ser=[BC]22042356 Details on http://radiosondy.info
W4DEX-14D220423562022-12-07 12:57:5735.7806-78.316984574364Clb=-7.1m/s Type=DFM17 ser=[BC]22042356 Details on http://radiosondy.info
W4DEX-14D220423562022-12-07 12:57:5635.7803-78.322289574580Clb=-7.0m/s Type=DFM17 ser=[BC]22042356 Details on http://radiosondy.info
W4DEX-14D220423562022-12-07 12:57:5535.7803-78.324989594684Clb=-6.6m/s Type=DFM17 ser=[BC]22042356 Details on http://radiosondy.info
W4DEX-14D220423562022-12-07 12:57:5335.7803-78.327790654788Clb=-7.3m/s Type=DFM17 ser=[BC]22042356 Details on http://radiosondy.info
W4DEX-14D220423562022-12-07 12:57:5235.7803-78.330792704929Clb=-8.3m/s Type=DFM17 ser=[BC]22042356 Details on http://radiosondy.info
W4DEX-14D220423562022-12-07 12:57:5135.7801-78.33780615197Clb=-8.5m/s Type=DFM17 ser=[BC]22042356 Details on http://radiosondy.info
W4DEX-14D220423562022-12-07 12:57:5035.7796-78.339878595341Clb=-9.5m/s Type=DFM17 ser=[BC]22042356 Details on http://radiosondy.info
W4DEX-14D220423562022-12-07 12:57:4935.7791-78.342479615496Clb=-10.5m/s Type=DFM17 ser=[BC]22042356 Details on http://radiosondy.info
W4DEX-14D220423562022-12-07 12:57:4835.7787-78.345279655637Clb=-8.0m/s Type=DFM17 ser=[BC]22042356 Details on http://radiosondy.info
W4DEX-14D220423562022-12-07 12:57:4735.7782-78.348180675755Clb=-7.5m/s Type=DFM17 ser=[BC]22042356 Details on http://radiosondy.info
W4DEX-14D220423562022-12-07 12:57:4635.7777-78.351182705873Clb=-6.8m/s Type=DFM17 ser=[BC]22042356 Details on http://radiosondy.info
W4DEX-14D220423562022-12-07 12:57:4535.7774-78.354386765990Clb=-8.0m/s Type=DFM17 ser=[BC]22042356 Details on http://radiosondy.info
W4DEX-14D220423562022-12-07 12:57:4435.7772-78.357889786108Clb=-7.6m/s Type=DFM17 ser=[BC]22042356 Details on http://radiosondy.info
W4DEX-14D220423562022-12-07 12:57:4135.7772-78.361490806224Clb=-7.8m/s Type=DFM17 ser=[BC]22042356 Details on http://radiosondy.info
W4DEX-14D220423562022-12-07 12:57:2735.7772-78.36590786339Clb=-7.6m/s Type=DFM17 ser=[BC]22042356 Details on http://radiosondy.info
W4DEX-14D220423562022-12-07 12:56:5935.7772-78.368692726460Clb=-7.2m/s Type=DFM17 ser=[BC]22042356 Details on http://radiosondy.info
W4DEX-14D220423562022-12-07 12:56:3235.7774-78.371996726568Clb=-7.3m/s Type=DFM17 ser=[BC]22042356 Details on http://radiosondy.info
W4DEX-14D220423562022-12-07 12:56:0535.7776-78.375296746676Clb=-7.0m/s Type=DFM17 ser=[BC]22042356 Details on http://radiosondy.info
W4DEX-14D220423562022-12-07 12:55:3835.7779-78.378696746787Clb=-7.1m/s Type=DFM17 ser=[BC]22042356 Details on http://radiosondy.info
W4DEX-14D220423562022-12-07 12:55:1335.7782-78.38297746924Clb=-13.4m/s Type=DFM17 ser=[BC]22042356 Details on http://radiosondy.info
W4DEX-14D220423562022-12-07 12:54:4735.7785-78.385496767114Clb=-12.1m/s Type=DFM17 ser=[BC]22042356 Details on http://radiosondy.info
W4DEX-14D220423562022-12-07 12:54:2435.7788-78.388997787289Clb=-11.6m/s Type=DFM17 ser=[BC]22042356 Details on http://radiosondy.info
W4DEX-14D220423562022-12-07 12:53:5935.7791-78.392598817466Clb=-11.8m/s Type=DFM17 ser=[BC]22042356 Details on http://radiosondy.info
W4DEX-14D220423562022-12-07 12:53:3635.7798-78.3962109857650Clb=-12.6m/s Type=DFM17 ser=[BC]22042356 Details on http://radiosondy.info
W4DEX-14D220423562022-12-07 12:53:0935.7808-78.3999109857844Clb=-11.8m/s Type=DFM17 ser=[BC]22042356 Details on http://radiosondy.info
W4DEX-14D220423562022-12-07 12:52:4235.7818-78.4037108858031Clb=-12.9m/s Type=DFM17 ser=[BC]22042356 Details on http://radiosondy.info
W4DEX-14D220423562022-12-07 12:52:0735.7827-78.4074108878218Clb=-11.6m/s Type=DFM17 ser=[BC]22042356 Details on http://radiosondy.info
W4DEX-14D220423562022-12-07 12:51:3635.7839-78.4112111918401Clb=-13.0m/s Type=DFM17 ser=[BC]22042356 Details on http://radiosondy.info
W4DEX-14D220423562022-12-07 12:51:1035.7853-78.4149117968589Clb=-14.4m/s Type=DFM17 ser=[BC]22042356 Details on http://radiosondy.info
W4DEX-14D220423562022-12-07 12:50:4435.787-78.4188121988778Clb=-13.3m/s Type=DFM17 ser=[BC]22042356 Details on http://radiosondy.info
W4DEX-14D220423562022-12-07 12:50:1735.7888-78.42281201078977Clb=-13.2m/s Type=DFM17 ser=[BC]22042356 Details on http://radiosondy.info
W4DEX-14D220423562022-12-07 12:49:5235.7908-78.42711191099178Clb=-14.2m/s Type=DFM17 ser=[BC]22042356 Details on http://radiosondy.info
W4DEX-14D220423562022-12-07 12:49:2135.7928-78.43151191119384Clb=-13.3m/s Type=DFM17 ser=[BC]22042356 Details on http://radiosondy.info
W4DEX-14D220423562022-12-07 12:48:5335.7947-78.43611171199582Clb=-13.7m/s Type=DFM17 ser=[BC]22042356 Details on http://radiosondy.info
W4DEX-14D220423562022-12-07 12:48:2535.7967-78.4411181249791Clb=-13.8m/s Type=DFM17 ser=[BC]22042356 Details on http://radiosondy.info
W4DEX-14D220423562022-12-07 12:47:5435.7988-78.44611181249996Clb=-12.6m/s Type=DFM17 ser=[BC]22042356 Details on http://radiosondy.info
W4DEX-14D220423562022-12-07 12:47:2535.8011-78.451111913010201Clb=-14.6m/s Type=DFM17 ser=[BC]22042356 Details on http://radiosondy.info
W4DEX-14D220423562022-12-07 12:46:5435.8034-78.456412014110411Clb=-13.0m/s Type=DFM17 ser=[BC]22042356 Details on http://radiosondy.info
W4DEX-14D220423562022-12-07 12:46:2635.8061-78.461912315210614Clb=-12.7m/s Type=DFM17 ser=[BC]22042356 Details on http://radiosondy.info
W4DEX-14D220423562022-12-07 12:45:5635.8094-78.467612715710812Clb=-13.8m/s Type=DFM17 ser=[BC]22042356 Details on http://radiosondy.info
W4DEX-14D220423562022-12-07 12:45:2935.813-78.473412815411035Clb=-15.2m/s Type=DFM17 ser=[BC]22042356 Details on http://radiosondy.info
W4DEX-14D220423562022-12-07 12:45:0135.8165-78.478912815211258Clb=-15.3m/s Type=DFM17 ser=[BC]22042356 Details on http://radiosondy.info
W4DEX-14D220423562022-12-07 12:44:3135.8201-78.484413015711483Clb=-16.1m/s Type=DFM17 ser=[BC]22042356 Details on http://radiosondy.info
W4DEX-14D220423562022-12-07 12:44:0135.8239-78.489913315711673Clb=-9.5m/s Type=DFM17 ser=[BC]22042356 Details on http://radiosondy.info
W4DEX-14D220423562022-12-07 12:43:4735.8278-78.495313116511828Clb=-11.5m/s Type=DFM17 ser=[BC]22042356 Details on http://radiosondy.info
W4DEX-14D220423562022-12-07 12:43:2635.8319-78.501113117411962Clb=-7.7m/s Type=DFM17 ser=[BC]22042356 Details on http://radiosondy.info
W4DEX-14D220423562022-12-07 12:43:1735.8361-78.507113217212110Clb=-11.7m/s Type=DFM17 ser=[BC]22042356 Details on http://radiosondy.info
W4DEX-14D220423562022-12-07 12:43:0035.8404-78.513113015912303Clb=-14.1m/s Type=DFM17 ser=[BC]22042356 Details on http://radiosondy.info
W4DEX-14D220423562022-12-07 12:42:4135.844-78.518912414312503Clb=-12.1m/s Type=DFM17 ser=[BC]22042356 Details on http://radiosondy.info
W4DEX-14D220423562022-12-07 12:42:2235.8467-78.524511713312710Clb=-14.5m/s Type=DFM17 ser=[BC]22042356 Details on http://radiosondy.info
W4DEX-14D220423562022-12-07 12:42:0235.8487-78.530210913712915Clb=-11.9m/s Type=DFM17 ser=[BC]22042356 Details on http://radiosondy.info
W4DEX-14D220423562022-12-07 12:41:4735.8502-78.536310614113117Clb=-14.7m/s Type=DFM17 ser=[BC]22042356 Details on http://radiosondy.info
W4DEX-14D220423562022-12-07 12:41:3235.8514-78.542610414613323Clb=-10.6m/s Type=DFM17 ser=[BC]22042356 Details on http://radiosondy.info
W4DEX-14D220423562022-12-07 12:41:1735.8527-78.549210316313536Clb=-14.7m/s Type=DFM17 ser=[BC]22042356 Details on http://radiosondy.info
W4DEX-14D220423562022-12-07 12:40:5335.8979-78.7011923022374Clb=-20.8m/s Type=DFM17 ser=[BC]22042356 Details on http://radiosondy.info
W4DEX-14D220423562022-12-07 12:40:2135.8975-78.7023624122702Clb=-23.5m/s Type=DFM17 ser=[BC]22042356 Details on http://radiosondy.info
W4DEX-14D220423562022-12-07 12:39:4635.8969-78.704704423070Clb=-21.1m/s Type=DFM17 ser=[BC]22042356 Details on http://radiosondy.info
W4DEX-14D220423562022-12-07 12:39:0535.8967-78.706954823373Clb=-22.8m/s Type=DFM17 ser=[BC]22042356 Details on http://radiosondy.info
W4DEX-14D220423562022-12-07 12:38:3035.897-78.7082904123664Clb=-22.3m/s Type=DFM17 ser=[BC]22042356 Details on http://radiosondy.info
W4DEX-14D220423562022-12-07 12:37:5635.8965-78.7099575924062Clb=-25.1m/s Type=DFM17 ser=[BC]22042356 Details on http://radiosondy.info
W4DEX-14D220423562022-12-07 12:37:2235.8957-78.7125866924492Clb=-27.4m/s Type=DFM17 ser=[BC]22042356 Details on http://radiosondy.info
W4DEX-14D220423562022-12-07 12:36:4835.8959-78.71561016124871Clb=-24.4m/s Type=DFM17 ser=[BC]22042356 Details on http://radiosondy.info
W4DEX-14D220423562022-12-07 12:36:1135.8965-78.7183956125297Clb=-33.2m/s Type=DFM17 ser=[BC]22042356 Details on http://radiosondy.info
W4DEX-14D220423562022-12-07 12:35:3835.8961-78.7211777425697Clb=-26.2m/s Type=DFM17 ser=[BC]22042356 Details on http://radiosondy.info
W4DEX-14D220423562022-12-07 12:34:5935.8959-78.7244907826127Clb=-31.7m/s Type=DFM17 ser=[BC]22042356 Details on http://radiosondy.info
W4DEX-14D220423562022-12-07 12:34:2335.8961-78.728937226552Clb=-22.9m/s Type=DFM17 ser=[BC]22042356 Details on http://radiosondy.info
W4DEX-14D220423562022-12-07 12:33:4935.8963-78.73131006126889Clb=-20.1m/s Type=DFM17 ser=[BC]22042356 Details on http://radiosondy.info
W4DEX-14D220423562022-12-07 12:33:1335.8966-78.73411015927217Clb=-21.5m/s Type=DFM17 ser=[BC]22042356 Details on http://radiosondy.info
W4DEX-14D220423562022-12-07 12:32:4235.8967-78.7368898727534Clb=-22.2m/s Type=DFM17 ser=[BC]22042356 Details on http://radiosondy.info
W4DEX-14D220423562022-12-07 12:32:0535.8967-78.7408939427912Clb=-24.9m/s Type=DFM17 ser=[BC]22042356 Details on http://radiosondy.info
W4DEX-14D220423562022-12-07 12:31:3035.8967-78.7452927628293Clb=-23.4m/s Type=DFM17 ser=[BC]22042356 Details on http://radiosondy.info
W4DEX-14D220423562022-12-07 12:30:5035.8967-78.7486809328682Clb=-22.1m/s Type=DFM17 ser=[BC]22042356 Details on http://radiosondy.info
W4DEX-14D220423562022-12-07 12:30:1635.8965-78.75299010629033Clb=-28.1m/s Type=DFM17 ser=[BC]22042356 Details on http://radiosondy.info
W4DEX-14D220423562022-12-07 12:29:3735.8968-78.757710610029355Clb=-24.7m/s Type=DFM17 ser=[BC]22042356 Details on http://radiosondy.info
W4DEX-14D220423562022-12-07 12:29:0035.8974-78.76229610229534Clb=7.3m/s Type=DFM17 ser=[BC]22042356 Details on http://radiosondy.info
W4DEX-14D220423562022-12-07 12:28:2335.8976-78.76681019429435Clb=10.0m/s Type=DFM17 ser=[BC]22042356 Details on http://radiosondy.info
W4DEX-14D220423562022-12-07 12:27:4635.8979-78.77119910629330Clb=9.0m/s Type=DFM17 ser=[BC]22042356 Details on http://radiosondy.info
W4DEX-14D220423562022-12-07 12:27:0435.8985-78.77610110929228Clb=7.6m/s Type=DFM17 ser=[BC]22042356 Details on http://radiosondy.info
W4DEX-14D220423562022-12-07 12:26:2935.8987-78.78099610029124Clb=8.4m/s Type=DFM17 ser=[BC]22042356 Details on http://radiosondy.info
W4DEX-14D220423562022-12-07 12:25:5235.8989-78.7855979129023Clb=8.8m/s Type=DFM17 ser=[BC]22042356 Details on http://radiosondy.info
W4DEX-14D220423562022-12-07 12:25:1735.8987-78.7896989428920Clb=4.9m/s Type=DFM17 ser=[BC]22042356 Details on http://radiosondy.info
W4DEX-14D220423562022-12-07 12:24:3535.8989-78.794948728821Clb=5.7m/s Type=DFM17 ser=[BC]22042356 Details on http://radiosondy.info
W4DEX-14D220423562022-12-07 12:24:0235.8989-78.79781028328726Clb=5.7m/s Type=DFM17 ser=[BC]22042356 Details on http://radiosondy.info
W4DEX-14D220423562022-12-07 12:23:5335.8987-78.8015727428634Clb=5.5m/s Type=DFM17 ser=[BC]22042356 Details on http://radiosondy.info
W4DEX-14D220423562022-12-07 12:23:4535.8989-78.80491017628540Clb=9.2m/s Type=DFM17 ser=[BC]22042356 Details on http://radiosondy.info
W4DEX-14D220423562022-12-07 12:23:2235.8994-78.8083948028445Clb=8.6m/s Type=DFM17 ser=[BC]22042356 Details on http://radiosondy.info
W4DEX-14D220423562022-12-07 12:23:0235.8997-78.812948528354Clb=7.5m/s Type=DFM17 ser=[BC]22042356 Details on http://radiosondy.info
W4DEX-14D220423562022-12-07 12:22:5135.8998-78.8158919428264Clb=6.0m/s Type=DFM17 ser=[BC]22042356 Details on http://radiosondy.info
W4DEX-14D220423562022-12-07 12:22:4835.8999-78.82028310028174Clb=4.6m/s Type=DFM17 ser=[BC]22042356 Details on http://radiosondy.info
W4DEX-14D220423562022-12-07 12:22:4235.9-78.8247899128085Clb=3.6m/s Type=DFM17 ser=[BC]22042356 Details on http://radiosondy.info
W4DEX-14D220423562022-12-07 12:22:0935.9002-78.8288889827992Clb=5.5m/s Type=DFM17 ser=[BC]22042356 Details on http://radiosondy.info
W4DEX-14D220423562022-12-07 12:21:2835.9012-78.9445686524464Clb=5.4m/s Type=DFM17 ser=[BC]22042356 Details on http://radiosondy.info
W4DEX-14D220423562022-12-07 12:20:5735.9004-78.9473776124375Clb=4.6m/s Type=DFM17 ser=[BC]22042356 Details on http://radiosondy.info
W4DEX-14D220423562022-12-07 12:20:2235.8994-78.9498594424286Clb=4.6m/s Type=DFM17 ser=[BC]22042356 Details on http://radiosondy.info
W4DEX-14D220423562022-12-07 12:19:5335.8986-78.9514684124197Clb=5.5m/s Type=DFM17 ser=[BC]22042356 Details on http://radiosondy.info
W4DEX-14D220423562022-12-07 12:19:1635.898-78.953423124108Clb=7.7m/s Type=DFM17 ser=[BC]22042356 Details on http://radiosondy.info
W4DEX-14D220423562022-12-07 12:18:4235.8973-78.954463024018Clb=7.3m/s Type=DFM17 ser=[BC]22042356 Details on http://radiosondy.info
W4DEX-14D220423562022-12-07 12:18:0935.8965-78.9551573323930Clb=6.8m/s Type=DFM17 ser=[BC]22042356 Details on http://radiosondy.info
W4DEX-14D220423562022-12-07 12:17:4035.8961-78.9565904323839Clb=5.0m/s Type=DFM17 ser=[BC]22042356 Details on http://radiosondy.info
W4DEX-14D220423562022-12-07 12:17:0935.8958-78.9584854423749Clb=7.9m/s Type=DFM17 ser=[BC]22042356 Details on http://radiosondy.info
W4DEX-14D220423562022-12-07 12:16:4335.8959-78.96031014423667Clb=6.1m/s Type=DFM17 ser=[BC]22042356 Details on http://radiosondy.info
W4DEX-14D220423562022-12-07 12:16:1535.8961-78.9623964823585Clb=7.5m/s Type=DFM17 ser=[BC]22042356 Details on http://radiosondy.info
W4DEX-14D220423562022-12-07 12:15:4835.8966-78.96441224323499Clb=5.5m/s Type=DFM17 ser=[BC]22042356 Details on http://radiosondy.info
W4DEX-14D220423562022-12-07 12:15:2035.8969-78.9663993923412Clb=7.4m/s Type=DFM17 ser=[BC]22042356 Details on http://radiosondy.info
W4DEX-14D220423562022-12-07 12:14:5335.897-78.9681834123323Clb=6.8m/s Type=DFM17 ser=[BC]22042356 Details on http://radiosondy.info
W4DEX-14D220423562022-12-07 12:14:2335.8969-78.9699783923235Clb=6.0m/s Type=DFM17 ser=[BC]22042356 Details on http://radiosondy.info
W4DEX-14D220423562022-12-07 12:13:5535.8966-78.9717784123146Clb=5.3m/s Type=DFM17 ser=[BC]22042356 Details on http://radiosondy.info
W4DEX-14D220423562022-12-07 12:13:2435.8962-78.9735573723060Clb=7.2m/s Type=DFM17 ser=[BC]22042356 Details on http://radiosondy.info
W4DEX-14D220423562022-12-07 12:12:5035.8955-78.9749703522966Clb=7.4m/s Type=DFM17 ser=[BC]22042356 Details on http://radiosondy.info
W4DEX-14D220423562022-12-07 12:12:1535.8947-78.9762553522882Clb=5.0m/s Type=DFM17 ser=[BC]22042356 Details on http://radiosondy.info
W4DEX-14D220423562022-12-07 12:11:4135.8939-78.9773463722797Clb=6.3m/s Type=DFM17 ser=[BC]22042356 Details on http://radiosondy.info
W4DEX-14D220423562022-12-07 12:11:0835.893-78.9786613022708Clb=7.1m/s Type=DFM17 ser=[BC]22042356 Details on http://radiosondy.info
W4DEX-14D220423562022-12-07 12:10:3735.8922-78.9794523122621Clb=7.0m/s Type=DFM17 ser=[BC]22042356 Details on http://radiosondy.info
W4DEX-14D220423562022-12-07 12:09:5735.8916-78.9807613122531Clb=4.7m/s Type=DFM17 ser=[BC]22042356 Details on http://radiosondy.info
W4DEX-14D220423562022-12-07 12:09:2535.8914-78.982843522442Clb=6.4m/s Type=DFM17 ser=[BC]22042356 Details on http://radiosondy.info
W4DEX-14D220423562022-12-07 12:08:5235.891-78.9835983022357Clb=7.0m/s Type=DFM17 ser=[BC]22042356 Details on http://radiosondy.info
W4DEX-14D220423562022-12-07 12:08:1935.891-78.9849983922266Clb=6.0m/s Type=DFM17 ser=[BC]22042356 Details on http://radiosondy.info
W4DEX-14D220423562022-12-07 12:07:4535.8911-78.9867864422175Clb=5.7m/s Type=DFM17 ser=[BC]22042356 Details on http://radiosondy.info
W4DEX-14D220423562022-12-07 12:07:1335.891-78.98861193322078Clb=4.1m/s Type=DFM17 ser=[BC]22042356 Details on http://radiosondy.info
W4DEX-14D220423562022-12-07 12:06:4535.8912-78.991213521984Clb=4.8m/s Type=DFM17 ser=[BC]22042356 Details on http://radiosondy.info
W4DEX-14D220423562022-12-07 12:06:1035.8915-78.9915894121883Clb=6.3m/s Type=DFM17 ser=[BC]22042356 Details on http://radiosondy.info
W4DEX-14D220423562022-12-07 12:05:3935.8923-78.99311335221780Clb=8.3m/s Type=DFM17 ser=[BC]22042356 Details on http://radiosondy.info
W4DEX-14D220423562022-12-07 12:05:0735.8934-78.9951236121678Clb=4.4m/s Type=DFM17 ser=[BC]22042356 Details on http://radiosondy.info
W4DEX-14D220423562022-12-07 12:04:3535.8945-78.99741076121577Clb=7.5m/s Type=DFM17 ser=[BC]22042356 Details on http://radiosondy.info
W4DEX-14D220423562022-12-07 12:04:0235.8955-791206521483Clb=6.7m/s Type=DFM17 ser=[BC]22042356 Details on http://radiosondy.info
W4DEX-14D220423562022-12-07 12:03:4735.8964-79.00271046721391Clb=6.7m/s Type=DFM17 ser=[BC]22042356 Details on http://radiosondy.info
W4DEX-14D220423562022-12-07 12:03:4035.8972-79.00551225721305Clb=4.7m/s Type=DFM17 ser=[BC]22042356 Details on http://radiosondy.info
W4DEX-14D220423562022-12-07 12:03:2435.898-79.0081075021221Clb=5.6m/s Type=DFM17 ser=[BC]22042356 Details on http://radiosondy.info
W4DEX-14D220423562022-12-07 12:03:0535.8985-79.01021094821142Clb=4.7m/s Type=DFM17 ser=[BC]22042356 Details on http://radiosondy.info
W4DEX-14D220423562022-12-07 12:02:5335.9011-79.0311006520367Clb=6.0m/s Type=DFM17 ser=[BC]22042356 Details on http://radiosondy.info
W4DEX-14D220423562022-12-07 12:02:5135.9008-79.034765920268Clb=7.6m/s Type=DFM17 ser=[BC]22042356 Details on http://radiosondy.info
W4DEX-14D220423562022-12-07 12:02:5035.9006-79.0366865620173Clb=3.8m/s Type=DFM17 ser=[BC]22042356 Details on http://radiosondy.info
W4DEX-14D220423562022-12-07 12:02:4935.9004-79.0392915020081Clb=7.3m/s Type=DFM17 ser=[BC]22042356 Details on http://radiosondy.info
W4DEX-14D220423562022-12-07 12:02:3135.9003-79.0415914819995Clb=5.5m/s Type=DFM17 ser=[BC]22042356 Details on http://radiosondy.info
W4DEX-14D220423562022-12-07 12:02:0835.9004-79.0437994119911Clb=5.0m/s Type=DFM17 ser=[BC]22042356 Details on http://radiosondy.info
W4DEX-14D220423562022-12-07 12:01:5935.9006-79.0456883519830Clb=4.5m/s Type=DFM17 ser=[BC]22042356 Details on http://radiosondy.info
W4DEX-14D220423562022-12-07 12:01:5835.9007-79.04721043319753Clb=4.6m/s Type=DFM17 ser=[BC]22042356 Details on http://radiosondy.info
W4DEX-14D220423562022-12-07 12:01:5635.901-79.04861074119679Clb=5.2m/s Type=DFM17 ser=[BC]22042356 Details on http://radiosondy.info
W4DEX-14D220423562022-12-07 12:01:5435.9015-79.05041154319607Clb=5.3m/s Type=DFM17 ser=[BC]22042356 Details on http://radiosondy.info
W4DEX-14D220423562022-12-07 12:01:5235.9023-79.05211385019533Clb=6.4m/s Type=DFM17 ser=[BC]22042356 Details on http://radiosondy.info
W4DEX-14D220423562022-12-07 12:01:5135.9035-79.05371455419462Clb=5.5m/s Type=DFM17 ser=[BC]22042356 Details on http://radiosondy.info
W4DEX-14D220423562022-12-07 12:01:4935.9049-79.05551307619380Clb=7.1m/s Type=DFM17 ser=[BC]22042356 Details on http://radiosondy.info
W4DEX-14D220423562022-12-07 12:01:4835.9067-79.05831277619305Clb=5.0m/s Type=DFM17 ser=[BC]22042356 Details on http://radiosondy.info
W4DEX-14D220423562022-12-07 12:01:4635.9082-79.06121288119229Clb=5.4m/s Type=DFM17 ser=[BC]22042356 Details on http://radiosondy.info
W4DEX-14D220423562022-12-07 12:01:4535.9096-79.06461098719149Clb=6.8m/s Type=DFM17 ser=[BC]22042356 Details on http://radiosondy.info
W4DEX-14D220423562022-12-07 12:01:3835.9104-79.0684928519048Clb=4.2m/s Type=DFM17 ser=[BC]22042356 Details on http://radiosondy.info
W4DEX-14D220423562022-12-07 12:01:1635.9108-79.0723967418966Clb=6.1m/s Type=DFM17 ser=[BC]22042356 Details on http://radiosondy.info
W4KZK-14D220423562022-12-07 12:00:4735.911-79.0756996118884Clb=6.9m/s t=-72.2C h=-1.0% p=-1.0hPa 403.400 MHz Type=DFM17 ser=22042356 Radiosonde
W4DEX-14D220423562022-12-07 12:00:4435.911-79.07561006518877Clb=6.0m/s Type=DFM17 ser=[BC]22042356 Details on http://radiosondy.info
W4DEX-14D220423562022-12-07 12:00:1735.9114-79.0785956118790Clb=4.6m/s Type=DFM17 ser=[BC]22042356 Details on http://radiosondy.info
W4DEX-14D220423562022-12-07 11:59:4335.9117-79.08131116118704Clb=5.5m/s Type=DFM17 ser=[BC]22042356 Details on http://radiosondy.info
W4KZK-14D220423562022-12-07 11:59:4035.9119-79.0821065218686Clb=4.7m/s t=-71.6C h=-1.0% p=-1.0hPa 403.400 MHz Type=DFM17 ser=22042356 Radiosonde
W4DEX-14D220423562022-12-07 11:59:1335.9123-79.0841075218618Clb=5.1m/s Type=DFM17 ser=[BC]22042356 Details on http://radiosondy.info
W4DEX-14D220423562022-12-07 11:58:3735.9128-79.08631105018533Clb=6.3m/s Type=DFM17 ser=[BC]22042356 Details on http://radiosondy.info
W4KZK-14D220423562022-12-07 11:58:2935.9134-79.08811166118451Clb=6.3m/s t=-71.0C h=-1.0% p=-1.0hPa 403.400 MHz Type=DFM17 ser=22042356 Radiosonde
W4DEX-14D220423562022-12-07 11:58:0735.9135-79.08841144618429Clb=7.4m/s Type=DFM17 ser=[BC]22042356 Details on http://radiosondy.info
W4DEX-14D220423562022-12-07 11:57:3035.9144-79.09021175218339Clb=3.3m/s Type=DFM17 ser=[BC]22042356 Details on http://radiosondy.info
W4KZK-14D220423562022-12-07 11:57:1335.9152-79.09151156318283Clb=6.8m/s t=-69.8C h=-1.0% p=-1.0hPa 403.400 MHz Type=DFM17 ser=22042356 Radiosonde
W4DEX-14D220423562022-12-07 11:56:5535.9155-79.0921364818253Clb=4.6m/s Type=DFM17 ser=[BC]22042356 Details on http://radiosondy.info
W4DEX-14D220423562022-12-07 11:56:2335.9165-79.0941135918169Clb=4.6m/s Type=DFM17 ser=[BC]22042356 Details on http://radiosondy.info
W4KZK-14D220423562022-12-07 11:56:0335.9174-79.0961066718106Clb=3.8m/s t=-68.8C h=-1.0% p=-1.0hPa 403.400 MHz Type=DFM17 ser=22042356 Radiosonde
W4DEX-14D220423562022-12-07 11:55:5435.9175-79.09641256518089Clb=5.7m/s Type=DFM17 ser=[BC]22042356 Details on http://radiosondy.info
W4DEX-14D220423562022-12-07 11:55:2535.9188-79.09891167618009Clb=3.7m/s Type=DFM17 ser=[BC]22042356 Details on http://radiosondy.info
W4DEX-14D220423562022-12-07 11:54:5835.9201-79.1021149117929Clb=4.6m/s Type=DFM17 ser=[BC]22042356 Details on http://radiosondy.info
W4DEX-14D220423562022-12-07 11:54:3335.9214-79.105911010217853Clb=4.1m/s Type=DFM17 ser=[BC]22042356 Details on http://radiosondy.info
W4DEX-14D220423562022-12-07 11:54:0235.9225-79.11041179317783Clb=1.1m/s Type=DFM17 ser=[BC]22042356 Details on http://radiosondy.info
W4KZK-14D220423562022-12-07 11:53:5835.9228-79.1116969117759Clb=7.8m/s t=-71.7C h=-1.0% p=-1.0hPa 403.400 MHz Type=DFM17 ser=22042356 Radiosonde
W4DEX-14D220423562022-12-07 11:53:3235.9234-79.11451078317694Clb=6.3m/s Type=DFM17 ser=[BC]22042356 Details on http://radiosondy.info
W4DEX-14D220423562022-12-07 11:53:0435.9244-79.11811127817615Clb=5.8m/s Type=DFM17 ser=[BC]22042356 Details on http://radiosondy.info
W4KZK-14D220423562022-12-07 11:52:5335.9247-79.11941027217591Clb=4.1m/s t=-71.4C h=-1.0% p=-1.0hPa 403.400 MHz Type=DFM17 ser=22042356 Radiosonde
W4DEX-14D220423562022-12-07 11:52:3435.9254-79.12141138117532Clb=7.0m/s Type=DFM17 ser=[BC]22042356 Details on http://radiosondy.info
W4DEX-14D220423562022-12-07 11:52:0335.9267-79.12481119317434Clb=7.5m/s Type=DFM17 ser=[BC]22042356 Details on http://radiosondy.info
W4KZK-14D220423562022-12-07 11:51:5435.9276-79.12731098517376Clb=5.3m/s t=-71.9C h=-1.0% p=-1.0hPa 403.400 MHz Type=DFM17 ser=22042356 Radiosonde
W4DEX-14D220423562022-12-07 11:51:4735.928-79.12881119817328Clb=8.9m/s Type=DFM17 ser=[BC]22042356 Details on http://radiosondy.info
W4DEX-14D220423562022-12-07 11:51:3235.9291-79.13311098917229Clb=7.5m/s Type=DFM17 ser=[BC]22042356 Details on http://radiosondy.info
W4KZK-14D220423562022-12-07 11:51:2235.9297-79.1368979317146Clb=2.8m/s t=-71.3C h=-1.0% p=-1.0hPa 403.400 MHz Type=DFM17 ser=22042356 Radiosonde
W4DEX-14D220423562022-12-07 11:51:1835.9428-79.20689811515762Clb=6.0m/s Type=DFM17 ser=[BC]22042356 Details on http://radiosondy.info
W4DEX-14D220423562022-12-07 11:51:1735.9438-79.21199811315682Clb=5.7m/s Type=DFM17 ser=[BC]22042356 Details on http://radiosondy.info
W4DEX-14D220423562022-12-07 11:51:1635.9446-79.21710511315605Clb=5.4m/s Type=DFM17 ser=[BC]22042356 Details on http://radiosondy.info
W4DEX-14D220423562022-12-07 11:51:1535.9455-79.222110510215526Clb=5.4m/s Type=DFM17 ser=[BC]22042356 Details on http://radiosondy.info
W4DEX-14D220423562022-12-07 11:51:1435.9462-79.22671029615445Clb=4.9m/s Type=DFM17 ser=[BC]22042356 Details on http://radiosondy.info
W4DEX-14D220423562022-12-07 11:51:1335.9467-79.23111039415365Clb=5.0m/s Type=DFM17 ser=[BC]22042356 Details on http://radiosondy.info
W4KZK-14D220423562022-12-07 11:51:1235.9471-79.23410110015317Clb=5.7m/s t=-68.3C h=-1.0% p=-1.0hPa 403.400 MHz Type=DFM17 ser=22042356 Radiosonde
W4DEX-14D220423562022-12-07 11:51:0535.948-79.23971069315203Clb=6.0m/s Type=DFM17 ser=[BC]22042356 Details on http://radiosondy.info
W4DEX-14D220423562022-12-07 11:50:4435.9486-79.24391059415114Clb=7.2m/s Type=DFM17 ser=[BC]22042356 Details on http://radiosondy.info
W4DEX-14D220423562022-12-07 11:50:1635.9494-79.24811069815030Clb=6.1m/s Type=DFM17 ser=[BC]22042356 Details on http://radiosondy.info
W4KZK-14D220423562022-12-07 11:49:5035.9509-79.25471089114921Clb=4.1m/s t=-66.0C h=-1.0% p=-1.0hPa 403.400 MHz Type=DFM17 ser=22042356 Radiosonde
W4DEX-14D220423562022-12-07 11:49:2535.9514-79.256910410614883Clb=5.0m/s Type=DFM17 ser=[BC]22042356 Details on http://radiosondy.info
W4DEX-14D220423562022-12-07 11:48:5635.9525-79.261610610914808Clb=4.0m/s Type=DFM17 ser=[BC]22042356 Details on http://radiosondy.info
W4KZK-14D220423562022-12-07 11:48:5135.9528-79.262910411714793Clb=3.5m/s t=-65.2C h=-1.0% p=-1.0hPa 403.400 MHz Type=DFM17 ser=22042356 Radiosonde
W4DEX-14D220423562022-12-07 11:48:2935.9537-79.266410811114733Clb=5.0m/s Type=DFM17 ser=[BC]22042356 Details on http://radiosondy.info
W4DEX-14D220423562022-12-07 11:48:0235.9549-79.271310611114658Clb=6.1m/s Type=DFM17 ser=[BC]22042356 Details on http://radiosondy.info
W4KZK-14D220423562022-12-07 11:47:5135.9555-79.273710511314628Clb=5.7m/s t=-64.4C h=-1.0% p=-1.0hPa 403.400 MHz Type=DFM17 ser=22042356 Radiosonde
W4DEX-14D220423562022-12-07 11:47:3335.956-79.276310511314583Clb=5.3m/s Type=DFM17 ser=[BC]22042356 Details on http://radiosondy.info
W4DEX-14D220423562022-12-07 11:47:0335.9572-79.281310310914508Clb=5.6m/s Type=DFM17 ser=[BC]22042356 Details on http://radiosondy.info
W4KZK-14D220423562022-12-07 11:46:4535.958-79.284511010714452Clb=6.6m/s t=-63.6C h=-1.0% p=-1.0hPa 403.400 MHz Type=DFM17 ser=22042356 Radiosonde
W4DEX-14D220423562022-12-07 11:46:3535.9585-79.286111111914415Clb=3.9m/s Type=DFM17 ser=[BC]22042356 Details on http://radiosondy.info
W4DEX-14D220423562022-12-07 11:46:0635.9601-79.291210812414309Clb=9.3m/s Type=DFM17 ser=[BC]22042356 Details on http://radiosondy.info
W4KZK-14D220423562022-12-07 11:45:4635.9616-79.295810812014232Clb=6.8m/s t=-63.1C h=-1.0% p=-1.0hPa 403.400 MHz Type=DFM17 ser=22042356 Radiosonde
W4DEX-14D220423562022-12-07 11:45:3935.9619-79.296511613514214Clb=5.8m/s Type=DFM17 ser=[BC]22042356 Details on http://radiosondy.info
W4DEX-14D220423562022-12-07 11:45:1135.9639-79.302211614314129Clb=5.6m/s Type=DFM17 ser=[BC]22042356 Details on http://radiosondy.info
W4KZK-14D220423562022-12-07 11:44:4435.9664-79.308611915414056Clb=5.3m/s t=-63.2C h=-1.0% p=-1.0hPa 403.400 MHz Type=DFM17 ser=22042356 Radiosonde
W4DEX-14D220423562022-12-07 11:44:1335.9687-79.314311215613987Clb=4.0m/s Type=DFM17 ser=[BC]22042356 Details on http://radiosondy.info
W4DEX-14D220423562022-12-07 11:44:0135.9711-79.320811715713917Clb=5.5m/s Type=DFM17 ser=[BC]22042356 Details on http://radiosondy.info
W4KZK-14D220423562022-12-07 11:44:0035.973-79.326111615413862Clb=6.8m/s t=-62.8C h=-1.0% p=-1.0hPa 403.400 MHz Type=DFM17 ser=22042356 Radiosonde
W4DEX-14D220423562022-12-07 11:43:5735.9735-79.327411316113840Clb=4.4m/s Type=DFM17 ser=[BC]22042356 Details on http://radiosondy.info
W4DEX-14D220423562022-12-07 11:43:5335.9757-79.334311417013764Clb=4.5m/s Type=DFM17 ser=[BC]22042356 Details on http://radiosondy.info
W4KZK-14D220423562022-12-07 11:43:5135.9769-79.338211217813732Clb=4.3m/s t=-63.5C h=-1.0% p=-1.0hPa 403.400 MHz Type=DFM17 ser=22042356 Radiosonde
W4DEX-14D220423562022-12-07 11:43:4935.978-79.341611417813693Clb=6.0m/s Type=DFM17 ser=[BC]22042356 Details on http://radiosondy.info
W4DEX-14D220423562022-12-07 11:43:4535.9802-79.349411018013616Clb=5.5m/s Type=DFM17 ser=[BC]22042356 Details on http://radiosondy.info
W4KZK-14D220423562022-12-07 11:43:3935.9816-79.354611018113571Clb=5.4m/s t=-64.5C h=-1.0% p=-1.0hPa 403.400 MHz Type=DFM17 ser=22042356 Radiosonde
W4DEX-14D220423562022-12-07 11:43:3235.9822-79.357310617613539Clb=4.3m/s Type=DFM17 ser=[BC]22042356 Details on http://radiosondy.info
W4DEX-14D220423562022-12-07 11:43:2035.9839-79.36519416513460Clb=1.7m/s Type=DFM17 ser=[BC]22042356 Details on http://radiosondy.info
W4DEX-14D220423562022-12-07 11:43:0335.9851-79.372510215713356Clb=4.9m/s Type=DFM17 ser=[BC]22042356 Details on http://radiosondy.info
W4DEX-14D220423562022-12-07 11:42:5135.9865-79.379710816313268Clb=5.0m/s Type=DFM17 ser=[BC]22042356 Details on http://radiosondy.info
W4DEX-14D220423562022-12-07 11:42:3835.9879-79.386911415413169Clb=9.1m/s Type=DFM17 ser=[BC]22042356 Details on http://radiosondy.info
W4DEX-14D220423562022-12-07 11:42:1435.9896-79.393610914313048Clb=10.6m/s Type=DFM17 ser=[BC]22042356 Details on http://radiosondy.info
W4DEX-14D220423562022-12-07 11:41:4735.9912-79.399911215412947Clb=8.1m/s Type=DFM17 ser=[BC]22042356 Details on http://radiosondy.info
W4KZK-14D220423562022-12-07 11:41:4235.9921-79.402111816312915Clb=5.3m/s t=-62.1C h=-1.0% p=-1.0hPa 403.400 MHz Type=DFM17 ser=22042356 Radiosonde
W4DEX-14D220423562022-12-07 11:41:2335.9935-79.406313015412833Clb=4.1m/s Type=DFM17 ser=[BC]22042356 Details on http://radiosondy.info
W4DEX-14D220423562022-12-07 11:40:5635.9964-79.412412315212720Clb=9.3m/s Type=DFM17 ser=[BC]22042356 Details on http://radiosondy.info
W4KZK-14D220423562022-12-07 11:40:4535.9982-79.415312714612667Clb=4.4m/s t=-61.8C h=-1.0% p=-1.0hPa 403.400 MHz Type=DFM17 ser=22042356 Radiosonde
W4DEX-14D220423562022-12-07 11:40:3035.9997-79.418112616512625Clb=4.9m/s Type=DFM17 ser=[BC]22042356 Details on http://radiosondy.info
W4DEX-14D220423562022-12-07 11:40:0536.0034-79.424212716512536Clb=6.9m/s Type=DFM17 ser=[BC]22042356 Details on http://radiosondy.info
W4DEX-14D220423562022-12-07 11:39:5236.007-79.430412716112435Clb=5.3m/s Type=DFM17 ser=[BC]22042356 Details on http://radiosondy.info
W4DEX-14D220423562022-12-07 11:39:2736.0105-79.436413015612340Clb=3.9m/s Type=DFM17 ser=[BC]22042356 Details on http://radiosondy.info
W4KZK-14D220423562022-12-07 11:39:0236.0138-79.441712015012261Clb=11.2m/s t=-60.5C h=-1.0% p=-1.0hPa 403.400 MHz Type=DFM17 ser=22042356 Radiosonde
W4DEX-14D220423562022-12-07 11:38:5836.014-79.442111917812242Clb=6.7m/s Type=DFM17 ser=[BC]22042356 Details on http://radiosondy.info
W4DEX-14D220423562022-12-07 11:38:3036.018-79.448713118112143Clb=5.2m/s Type=DFM17 ser=[BC]22042356 Details on http://radiosondy.info
W4DEX-14D220423562022-12-07 11:38:0336.0222-79.455212117412068Clb=6.7m/s Type=DFM17 ser=[BC]22042356 Details on http://radiosondy.info
W4KZK-14D220423562022-12-07 11:38:0236.0227-79.456212018512062Clb=5.3m/s t=-59.6C h=-1.0% p=-1.0hPa 403.400 MHz Type=DFM17 ser=22042356 Radiosonde
W4DEX-14D220423562022-12-07 11:37:3036.0261-79.461612616911972Clb=5.7m/s Type=DFM17 ser=[BC]22042356 Details on http://radiosondy.info
W4DEX-14D220423562022-12-07 11:37:0036.0299-79.467812816311899Clb=3.3m/s Type=DFM17 ser=[BC]22042356 Details on http://radiosondy.info
W4KZK-14D220423562022-12-07 11:36:5336.0311-79.469812515611878Clb=5.3m/s t=-58.5C h=-1.0% p=-1.0hPa 403.400 MHz Type=DFM17 ser=22042356 Radiosonde
W4DEX-14D220423562022-12-07 11:36:3336.0336-79.473712615711825Clb=2.0m/s Type=DFM17 ser=[BC]22042356 Details on http://radiosondy.info
W4DEX-14D220423562022-12-07 11:36:0236.0371-79.479612615611734Clb=5.8m/s Type=DFM17 ser=[BC]22042356 Details on http://radiosondy.info
W4KZK-14D220423562022-12-07 11:35:5536.039-79.482612415711702Clb=3.0m/s t=-57.2C h=-1.0% p=-1.0hPa 403.400 MHz Type=DFM17 ser=22042356 Radiosonde
W4DEX-14D220423562022-12-07 11:35:4736.0406-79.485312715911662Clb=5.5m/s Type=DFM17 ser=[BC]22042356 Details on http://radiosondy.info
W4DEX-14D220423562022-12-07 11:35:3236.0441-79.491313015711594Clb=5.6m/s Type=DFM17 ser=[BC]22042356 Details on http://radiosondy.info
W4KZK-14D220423562022-12-07 11:35:2236.0467-79.495512916311548Clb=4.0m/s t=-56.6C h=-1.0% p=-1.0hPa 403.400 MHz Type=DFM17 ser=22042356 Radiosonde
W4DEX-14D220423562022-12-07 11:35:1736.0476-79.497112315211524Clb=4.4m/s Type=DFM17 ser=[BC]22042356 Details on http://radiosondy.info
W4DEX-14D220423562022-12-07 11:35:0236.0508-79.502912515011453Clb=4.0m/s Type=DFM17 ser=[BC]22042356 Details on http://radiosondy.info
W4KZK-14D220423562022-12-07 11:34:4936.054-79.508111715011386Clb=3.1m/s t=-55.3C h=-1.0% p=-1.0hPa 403.400 MHz Type=DFM17 ser=22042356 Radiosonde
W4DEX-14D220423562022-12-07 11:34:4736.0541-79.508511815411380Clb=3.9m/s Type=DFM17 ser=[BC]22042356 Details on http://radiosondy.info
W4DEX-14D220423562022-12-07 11:34:4236.0572-79.514512715611285Clb=3.5m/s Type=DFM17 ser=[BC]22042356 Details on http://radiosondy.info
W4KZK-14D220423562022-12-07 11:34:4136.0608-79.521312315411211Clb=3.1m/s t=-54.0C h=-1.0% p=-1.0hPa 403.400 MHz Type=DFM17 ser=22042356 Radiosonde
W4DEX-14D220423562022-12-07 11:34:4036.0669-79.532912016111071Clb=5.4m/s Type=DFM17 ser=[BC]22042356 Details on http://radiosondy.info
W4KZK-14D220423562022-12-07 11:34:3736.068-79.53512616911052Clb=2.8m/s t=-52.7C h=-1.0% p=-1.0hPa 403.400 MHz Type=DFM17 ser=22042356 Radiosonde
W4DEX-14D220423562022-12-07 11:34:2736.0701-79.539212315711001Clb=3.7m/s Type=DFM17 ser=[BC]22042356 Details on http://radiosondy.info
W4DEX-14D220423562022-12-07 11:34:0236.0731-79.545512015910927Clb=3.5m/s Type=DFM17 ser=[BC]22042356 Details on http://radiosondy.info
KG4IFE-1D220423562022-12-07 11:34:0136.0737-79.546912016710919Clb=2.9m/s t=-51.6C h=-1.0% p=-1.0hPa 403.400 MHz Type=DFM17 ser=22042356 Radiosonde
W4KZK-14D220423562022-12-07 11:33:5136.075-79.549412516110883Clb=4.2m/s t=-51.3C h=-1.0% p=-1.0hPa 403.400 MHz Type=DFM17 ser=22042356 Radiosonde
W4DEX-14D220423562022-12-07 11:33:3836.0763-79.551712515610851Clb=6.7m/s Type=DFM17 ser=[BC]22042356 Details on http://radiosondy.info
W4DEX-14D220423562022-12-07 11:33:1536.0795-79.557812515410777Clb=3.5m/s Type=DFM17 ser=[BC]22042356 Details on http://radiosondy.info
KG4IFE-1D220423562022-12-07 11:33:1236.0803-79.559312315910765Clb=3.3m/s t=-50.4C h=-1.0% p=-1.0hPa 403.400 MHz Type=DFM17 ser=22042356 Radiosonde
W4KZK-14D220423562022-12-07 11:32:5936.0818-79.56212414810734Clb=5.2m/s t=-50.4C h=-1.0% p=-1.0hPa 403.400 MHz Type=DFM17 ser=22042356 Radiosonde
W4DEX-14D220423562022-12-07 11:32:5136.0827-79.563612315010711Clb=5.2m/s Type=DFM17 ser=[BC]22042356 Details on http://radiosondy.info
W4DEX-14D220423562022-12-07 11:32:2436.0856-79.569611815010622Clb=6.8m/s Type=DFM17 ser=[BC]22042356 Details on http://radiosondy.info
W4KZK-14D220423562022-12-07 11:32:0536.0881-79.575211714110560Clb=5.3m/s t=-49.4C h=-1.0% p=-1.0hPa 403.400 MHz Type=DFM17 ser=22042356 Radiosonde
W4DEX-14D220423562022-12-07 11:32:0236.0883-79.575611914810551Clb=4.6m/s Type=DFM17 ser=[BC]22042356 Details on http://radiosondy.info
W4DEX-14D220423562022-12-07 11:31:4736.0911-79.581511915210485Clb=4.4m/s Type=DFM17 ser=[BC]22042356 Details on http://radiosondy.info
KG4IFE-1D220423562022-12-07 11:31:4336.0926-79.584711915710469Clb=1.9m/s t=-48.7C h=-1.0% p=-1.0hPa 403.400 MHz Type=DFM17 ser=22042356 Radiosonde
W4DEX-14D220423562022-12-07 11:31:3236.0939-79.587612915210433Clb=5.7m/s Type=DFM17 ser=[BC]22042356 Details on http://radiosondy.info
W4KZK-14D220423562022-12-07 11:31:3136.096-79.591911717410371Clb=6.1m/s t=-47.8C h=-1.0% p=-1.0hPa 403.400 MHz Type=DFM17 ser=22042356 Radiosonde
W4DEX-14D220423562022-12-07 11:31:1736.0966-79.593611515210342Clb=4.9m/s Type=DFM17 ser=[BC]22042356 Details on http://radiosondy.info
W4DEX-14D220423562022-12-07 11:31:0236.0993-79.599911713010246Clb=8.6m/s Type=DFM17 ser=[BC]22042356 Details on http://radiosondy.info
W4KZK-14D220423562022-12-07 11:30:5836.1004-79.602412512810204Clb=4.6m/s t=-46.3C h=-1.0% p=-1.0hPa 403.400 MHz Type=DFM17 ser=22042356 Radiosonde
W4DEX-14D220423562022-12-07 11:30:4736.1015-79.605111713910150Clb=9.0m/s Type=DFM17 ser=[BC]22042356 Details on http://radiosondy.info
W4DEX-14D220423562022-12-07 11:30:3236.1037-79.610710514310056Clb=6.5m/s Type=DFM17 ser=[BC]22042356 Details on http://radiosondy.info
W4KZK-14D220423562022-12-07 11:30:2536.1051-79.61421241199997Clb=8.5m/s t=-44.5C h=-1.0% p=-1.0hPa 403.400 MHz Type=DFM17 ser=22042356 Radiosonde
W4DEX-14D220423562022-12-07 11:30:1736.1061-79.61661161449947Clb=3.0m/s Type=DFM17 ser=[BC]22042356 Details on http://radiosondy.info
W4DEX-14D220423562022-12-07 11:30:0236.1084-79.62261151399852Clb=8.2m/s Type=DFM17 ser=[BC]22042356 Details on http://radiosondy.info
W4KZK-14D220423562022-12-07 11:29:5436.1103-79.62711191289783Clb=8.7m/s t=-42.6C h=-1.0% p=-1.0hPa 403.400 MHz Type=DFM17 ser=22042356 Radiosonde
W4DEX-14D220423562022-12-07 11:29:5336.1131-79.6341171419681Clb=3.5m/s Type=DFM17 ser=[BC]22042356 Details on http://radiosondy.info
W4KZK-14D220423562022-12-07 11:29:4536.1154-79.63981241399614Clb=9.3m/s t=-41.2C h=-1.0% p=-1.0hPa 403.400 MHz Type=DFM17 ser=22042356 Radiosonde
W4DEX-14D220423562022-12-07 11:29:4436.1154-79.63981251359608Clb=3.8m/s Type=DFM17 ser=[BC]22042356 Details on http://radiosondy.info
W4DEX-14D220423562022-12-07 11:29:2836.1179-79.64521191339519Clb=7.3m/s Type=DFM17 ser=[BC]22042356 Details on http://radiosondy.info
W4DEX-14D220423562022-12-07 11:29:0636.1201-79.65061311209423Clb=6.9m/s Type=DFM17 ser=[BC]22042356 Details on http://radiosondy.info
W4KZK-14D220423562022-12-07 11:29:0336.1205-79.65151041179409Clb=7.1m/s t=-39.8C h=-1.0% p=-1.0hPa 403.400 MHz Type=DFM17 ser=22042356 Radiosonde
W4DEX-14D220423562022-12-07 11:28:4436.1222-79.65551271199320Clb=5.8m/s Type=DFM17 ser=[BC]22042356 Details on http://radiosondy.info
W4DEX-14D220423562022-12-07 11:28:2136.124-79.66041291099221Clb=7.1m/s Type=DFM17 ser=[BC]22042356 Details on http://radiosondy.info
W4KZK-14D220423562022-12-07 11:28:1436.1246-79.66231261229186Clb=7.0m/s t=-38.0C h=-1.0% p=-1.0hPa 403.400 MHz Type=DFM17 ser=22042356 Radiosonde
W4DEX-14D220423562022-12-07 11:28:0236.1257-79.66491191099112Clb=10.5m/s Type=DFM17 ser=[BC]22042356 Details on http://radiosondy.info
W4DEX-14D220423562022-12-07 11:27:4736.1271-79.6695911069002Clb=5.8m/s Type=DFM17 ser=[BC]22042356 Details on http://radiosondy.info
W4KZK-14D220423562022-12-07 11:27:4036.128-79.67271111158937Clb=8.2m/s t=-35.9C h=-1.0% p=-1.0hPa 403.400 MHz Type=DFM17 ser=22042356 Radiosonde
W4DEX-14D220423562022-12-07 11:27:3236.1284-79.674198988897Clb=8.5m/s Type=DFM17 ser=[BC]22042356 Details on http://radiosondy.info
W4DEX-14D220423562022-12-07 11:27:1736.1296-79.6782113948788Clb=6.2m/s Type=DFM17 ser=[BC]22042356 Details on http://radiosondy.info
W4KZK-14D220423562022-12-07 11:27:0636.1308-79.68171111068716Clb=6.2m/s t=-33.9C h=-1.0% p=-1.0hPa 403.400 MHz Type=DFM17 ser=22042356 Radiosonde
W4DEX-14D220423562022-12-07 11:27:0236.1309-79.682298988693Clb=4.9m/s Type=DFM17 ser=[BC]22042356 Details on http://radiosondy.info
W4DEX-14D220423562022-12-07 11:26:4736.1319-79.686492898603Clb=6.1m/s Type=DFM17 ser=[BC]22042356 Details on http://radiosondy.info
W4KZK-14D220423562022-12-07 11:26:3336.1326-79.69061021068515Clb=9.1m/s t=-32.4C h=-1.0% p=-1.0hPa 403.400 MHz Type=DFM17 ser=22042356 Radiosonde
W4DEX-14D220423562022-12-07 11:26:3236.1326-79.69051011078507Clb=6.6m/s Type=DFM17 ser=[BC]22042356 Details on http://radiosondy.info
W4DEX-14D220423562022-12-07 11:26:1736.1335-79.6952109948427Clb=5.5m/s Type=DFM17 ser=[BC]22042356 Details on http://radiosondy.info
W4DEX-14D220423562022-12-07 11:26:0236.1345-79.6995114988329Clb=5.2m/s Type=DFM17 ser=[BC]22042356 Details on http://radiosondy.info
W4KZK-14D220423562022-12-07 11:26:0036.1348-79.7003107898316Clb=6.5m/s t=-30.8C h=-1.0% p=-1.0hPa 403.400 MHz Type=DFM17 ser=22042356 Radiosonde
W4DEX-14D220423562022-12-07 11:25:4736.1358-79.70361091008243Clb=9.5m/s Type=DFM17 ser=[BC]22042356 Details on http://radiosondy.info
W4DEX-14D220423562022-12-07 11:25:3236.1368-79.7081151008143Clb=7.3m/s Type=DFM17 ser=[BC]22042356 Details on http://radiosondy.info
W4KZK-14D220423562022-12-07 11:25:2736.1376-79.71131211138084Clb=5.1m/s t=-28.9C h=-1.0% p=-1.0hPa 403.400 MHz Type=DFM17 ser=22042356 Radiosonde
W4DEX-14D220423562022-12-07 11:25:2436.1379-79.7124107948059Clb=5.3m/s Type=DFM17 ser=[BC]22042356 Details on http://radiosondy.info
W4DEX-14D220423562022-12-07 11:25:1636.1387-79.7164105967959Clb=7.5m/s Type=DFM17 ser=[BC]22042356 Details on http://radiosondy.info
W4KZK-14D220423562022-12-07 11:25:0836.1393-79.7189101967914Clb=4.6m/s t=-28.0C h=-1.0% p=-1.0hPa 403.400 MHz Type=DFM17 ser=22042356 Radiosonde
W4DEX-14D220423562022-12-07 11:24:5736.1395-79.7208113917879Clb=8.4m/s Type=DFM17 ser=[BC]22042356 Details on http://radiosondy.info
W4DEX-14D220423562022-12-07 11:24:3936.1402-79.724899897780Clb=7.7m/s Type=DFM17 ser=[BC]22042356 Details on http://radiosondy.info
W4KZK-14D220423562022-12-07 11:24:2536.1406-79.728188937708Clb=4.6m/s t=-26.6C h=-1.0% p=-1.0hPa 403.400 MHz Type=DFM17 ser=22042356 Radiosonde
W4DEX-14D220423562022-12-07 11:24:1936.1407-79.7288106857685Clb=4.7m/s Type=DFM17 ser=[BC]22042356 Details on http://radiosondy.info
W4DEX-14D220423562022-12-07 11:24:0236.1412-79.732691857600Clb=7.5m/s Type=DFM17 ser=[BC]22042356 Details on http://radiosondy.info
W4KZK-14D220423562022-12-07 11:23:4836.1417-79.7368931027517Clb=4.9m/s t=-25.4C h=-1.0% p=-1.0hPa 403.400 MHz Type=DFM17 ser=22042356 Radiosonde
W4DEX-14D220423562022-12-07 11:23:4736.1417-79.736594897517Clb=4.8m/s Type=DFM17 ser=[BC]22042356 Details on http://radiosondy.info
W4DEX-14D220423562022-12-07 11:23:3236.1421-79.7405101937417Clb=7.5m/s Type=DFM17 ser=[BC]22042356 Details on http://radiosondy.info
W4DEX-14D220423562022-12-07 11:23:1736.1426-79.744786947319Clb=5.8m/s Type=DFM17 ser=[BC]22042356 Details on http://radiosondy.info
W4KZK-14D220423562022-12-07 11:23:1536.1428-79.747183837266Clb=8.8m/s t=-24.4C h=-1.0% p=-1.0hPa 403.400 MHz Type=DFM17 ser=22042356 Radiosonde
W4DEX-14D220423562022-12-07 11:23:0236.143-79.7489109877223Clb=6.2m/s Type=DFM17 ser=[BC]22042356 Details on http://radiosondy.info
W4DEX-14D220423562022-12-07 11:22:4736.1433-79.752875947141Clb=3.7m/s Type=DFM17 ser=[BC]22042356 Details on http://radiosondy.info
W4KZK-14D220423562022-12-07 11:22:4236.1434-79.754471747120Clb=3.0m/s t=-23.2C h=-1.0% p=-1.0hPa 403.400 MHz Type=DFM17 ser=22042356 Radiosonde
W4DEX-14D220423562022-12-07 11:22:3236.1435-79.757107937064Clb=5.8m/s Type=DFM17 ser=[BC]22042356 Details on http://radiosondy.info
W4DEX-14D220423562022-12-07 11:22:1736.1438-79.761194916967Clb=7.1m/s Type=DFM17 ser=[BC]22042356 Details on http://radiosondy.info
W4KZK-14D220423562022-12-07 11:22:0936.1439-79.763896966909Clb=10.2m/s t=-21.2C h=-1.0% p=-1.0hPa 403.400 MHz Type=DFM17 ser=22042356 Radiosonde
W4DEX-14D220423562022-12-07 11:22:0236.1438-79.7652106916860Clb=6.9m/s Type=DFM17 ser=[BC]22042356 Details on http://radiosondy.info
W4DEX-14D220423562022-12-07 11:21:4736.1439-79.7694108946760Clb=6.4m/s Type=DFM17 ser=[BC]22042356 Details on http://radiosondy.info
W4KZK-14D220423562022-12-07 11:21:3636.1442-79.773783746674Clb=8.3m/s t=-19.5C h=-1.0% p=-1.0hPa 403.400 MHz Type=DFM17 ser=22042356 Radiosonde
W4DEX-14D220423562022-12-07 11:21:3236.1442-79.773784876666Clb=7.0m/s Type=DFM17 ser=[BC]22042356 Details on http://radiosondy.info
W4DEX-14D220423562022-12-07 11:21:1736.1442-79.777678916573Clb=7.5m/s Type=DFM17 ser=[BC]22042356 Details on http://radiosondy.info
W4KZK-14D220423562022-12-07 11:21:0336.1443-79.7818108986484Clb=7.2m/s t=-18.0C h=-1.0% p=-1.0hPa 403.400 MHz Type=DFM17 ser=22042356 Radiosonde
W4DEX-14D220423562022-12-07 11:21:0236.1443-79.7818109876477Clb=5.7m/s Type=DFM17 ser=[BC]22042356 Details on http://radiosondy.info
W4DEX-14D220423562022-12-07 11:20:5136.1444-79.785774916380Clb=6.1m/s Type=DFM17 ser=[BC]22042356 Details on http://radiosondy.info
W4DEX-14D220423562022-12-07 11:20:3436.1442-79.789794876288Clb=6.5m/s Type=DFM17 ser=[BC]22042356 Details on http://radiosondy.info
W4KZK-14D220423562022-12-07 11:20:3136.1442-79.790766856269Clb=6.0m/s t=-16.4C h=-1.0% p=-1.0hPa 403.400 MHz Type=DFM17 ser=22042356 Radiosonde
W4DEX-14D220423562022-12-07 11:20:1736.1439-79.793682836193Clb=6.6m/s Type=DFM17 ser=[BC]22042356 Details on http://radiosondy.info
W4DEX-14D220423562022-12-07 11:20:0236.1433-79.797371856099Clb=8.0m/s Type=DFM17 ser=[BC]22042356 Details on http://radiosondy.info
W4KZK-14D220423562022-12-07 11:19:5636.1429-79.799391856054Clb=6.7m/s t=-15.4C h=-1.0% p=-1.0hPa 403.400 MHz Type=DFM17 ser=22042356 Radiosonde
W4DEX-14D220423562022-12-07 11:19:4736.1425-79.800866766005Clb=3.8m/s Type=DFM17 ser=[BC]22042356 Details on http://radiosondy.info
W4DEX-14D220423562022-12-07 11:19:3236.1415-79.804358785901Clb=7.1m/s Type=DFM17 ser=[BC]22042356 Details on http://radiosondy.info
W4KZK-14D220423562022-12-07 11:19:2336.1408-79.806487655834Clb=6.1m/s t=-14.3C h=-1.0% p=-1.0hPa 403.400 MHz Type=DFM17 ser=22042356 Radiosonde
W4DEX-14D220423562022-12-07 11:19:1736.1404-79.807460705803Clb=8.7m/s Type=DFM17 ser=[BC]22042356 Details on http://radiosondy.info
W4DEX-14D220423562022-12-07 11:19:0236.1394-79.810290675704Clb=4.4m/s Type=DFM17 ser=[BC]22042356 Details on http://radiosondy.info
W4KZK-14D220423562022-12-07 11:18:5036.1387-79.813278835611Clb=5.4m/s t=-12.4C h=-1.0% p=-1.0hPa 403.400 MHz Type=DFM17 ser=22042356 Radiosonde
W4DEX-14D220423562022-12-07 11:18:4736.1387-79.813263705605Clb=7.6m/s Type=DFM17 ser=[BC]22042356 Details on http://radiosondy.info
W4DEX-14D220423562022-12-07 11:18:3236.1378-79.816152675508Clb=6.0m/s Type=DFM17 ser=[BC]22042356 Details on http://radiosondy.info
W4KZK-14D220423562022-12-07 11:18:1736.1368-79.819357875395Clb=7.1m/s t=-10.7C h=-1.0% p=-1.0hPa 403.400 MHz Type=DFM17 ser=22042356 Radiosonde
W4DEX-14D220423562022-12-07 11:18:0236.1361-79.821958765304Clb=3.7m/s Type=DFM17 ser=[BC]22042356 Details on http://radiosondy.info
W4DEX-14D220423562022-12-07 11:17:4736.1352-79.825292805204Clb=7.4m/s Type=DFM17 ser=[BC]22042356 Details on http://radiosondy.info
W4DEX-14D220423562022-12-07 11:17:3236.1345-79.828566805107Clb=7.6m/s Type=DFM17 ser=[BC]22042356 Details on http://radiosondy.info
W4DEX-14D220423562022-12-07 11:17:1736.1337-79.832177785009Clb=6.3m/s Type=DFM17 ser=[BC]22042356 Details on http://radiosondy.info
W4DEX-14D220423562022-12-07 11:17:0236.133-79.835595674913Clb=5.6m/s Type=DFM17 ser=[BC]22042356 Details on http://radiosondy.info
W4DEX-14D220423562022-12-07 11:16:4836.1324-79.838353694825Clb=5.5m/s Type=DFM17 ser=[BC]22042356 Details on http://radiosondy.info
W4KZK-14D220423562022-12-07 11:16:4036.1318-79.840658764758Clb=5.3m/s t=-7.5C h=-1.0% p=-1.0hPa 403.400 MHz Type=DFM17 ser=22042356 Radiosonde
W4DEX-14D220423562022-12-07 11:16:3336.1317-79.8412103594735Clb=5.9m/s Type=DFM17 ser=[BC]22042356 Details on http://radiosondy.info
W4DEX-14D220423562022-12-07 11:16:1736.131-79.843883614636Clb=5.8m/s Type=DFM17 ser=[BC]22042356 Details on http://radiosondy.info
W4KZK-14D220423562022-12-07 11:16:0636.1305-79.8462100504557Clb=5.8m/s t=-5.7C h=-1.0% p=-1.0hPa 403.400 MHz Type=DFM17 ser=22042356 Radiosonde
W4DEX-14D220423562022-12-07 11:16:0236.1305-79.846475574546Clb=6.3m/s Type=DFM17 ser=[BC]22042356 Details on http://radiosondy.info
W4DEX-14D220423562022-12-07 11:15:4736.1299-79.848999564454Clb=4.6m/s Type=DFM17 ser=[BC]22042356 Details on http://radiosondy.info
W4DEX-14D220423562022-12-07 11:15:3236.1295-79.851253634362Clb=6.1m/s Type=DFM17 ser=[BC]22042356 Details on http://radiosondy.info
W4DEX-14D220423562022-12-07 11:15:1736.1288-79.853996564268Clb=6.3m/s Type=DFM17 ser=[BC]22042356 Details on http://radiosondy.info
W4DEX-14D220423562022-12-07 11:15:0236.1281-79.856273544175Clb=6.0m/s Type=DFM17 ser=[BC]22042356 Details on http://radiosondy.info
W4DEX-14D220423562022-12-07 11:14:4736.1275-79.858575544075Clb=6.3m/s Type=DFM17 ser=[BC]22042356 Details on http://radiosondy.info
W4DEX-14D220423562022-12-07 11:14:3236.1272-79.860789503983Clb=5.6m/s Type=DFM17 ser=[BC]22042356 Details on http://radiosondy.info
W4DEX-14D220423562022-12-07 11:14:1736.1267-79.8629101463887Clb=5.4m/s Type=DFM17 ser=[BC]22042356 Details on http://radiosondy.info
W4DEX-14D220423562022-12-07 11:14:0236.1263-79.864968483798Clb=5.8m/s Type=DFM17 ser=[BC]22042356 Details on http://radiosondy.info
W4DEX-14D220423562022-12-07 11:13:4736.1259-79.866948523708Clb=6.7m/s Type=DFM17 ser=[BC]22042356 Details on http://radiosondy.info
W4DEX-14D220423562022-12-07 11:13:3236.1254-79.869198503618Clb=6.0m/s Type=DFM17 ser=[BC]22042356 Details on http://radiosondy.info
W4DEX-14D220423562022-12-07 11:13:1736.1249-79.871164523523Clb=6.1m/s Type=DFM17 ser=[BC]22042356 Details on http://radiosondy.info
W4DEX-14D220423562022-12-07 11:13:0236.1245-79.873454503428Clb=5.5m/s Type=DFM17 ser=[BC]22042356 Details on http://radiosondy.info
W4DEX-14D220423562022-12-07 11:12:4736.1242-79.875576523340Clb=5.0m/s Type=DFM17 ser=[BC]22042356 Details on http://radiosondy.info
W4DEX-14D220423562022-12-07 11:12:3236.1236-79.877860543250Clb=5.4m/s Type=DFM17 ser=[BC]22042356 Details on http://radiosondy.info
W4DEX-14D220423562022-12-07 11:12:1736.1227-79.879871523160Clb=5.8m/s Type=DFM17 ser=[BC]22042356 Details on http://radiosondy.info
W4DEX-14D220423562022-12-07 11:12:0236.1218-79.881738523068Clb=5.3m/s Type=DFM17 ser=[BC]22042356 Details on http://radiosondy.info
W4DEX-14D220423562022-12-07 11:11:4736.1208-79.883879502974Clb=5.9m/s Type=DFM17 ser=[BC]22042356 Details on http://radiosondy.info
W4DEX-14D220423562022-12-07 11:11:3236.1198-79.885783482875Clb=4.8m/s Type=DFM17 ser=[BC]22042356 Details on http://radiosondy.info
W4DEX-14D220423562022-12-07 11:11:1736.1189-79.887453482778Clb=5.3m/s Type=DFM17 ser=[BC]22042356 Details on http://radiosondy.info
W4DEX-14D220423562022-12-07 11:11:0236.118-79.889129442684Clb=6.2m/s Type=DFM17 ser=[BC]22042356 Details on http://radiosondy.info
W4DEX-14D220423562022-12-07 11:10:4736.1173-79.890943432586Clb=6.2m/s Type=DFM17 ser=[BC]22042356 Details on http://radiosondy.info
W4DEX-14D220423562022-12-07 11:10:3236.1164-79.892577442493Clb=6.2m/s Type=DFM17 ser=[BC]22042356 Details on http://radiosondy.info
W4DEX-14D220423562022-12-07 11:10:1736.1159-79.894235462400Clb=5.7m/s Type=DFM17 ser=[BC]22042356 Details on http://radiosondy.info
W4DEX-14D220423562022-12-07 11:10:0236.1153-79.8961103392307Clb=6.2m/s Type=DFM17 ser=[BC]22042356 Details on http://radiosondy.info
W4DEX-14D220423562022-12-07 11:09:4736.1149-79.897760442214Clb=5.6m/s Type=DFM17 ser=[BC]22042356 Details on http://radiosondy.info
W4DEX-14D220423562022-12-07 11:09:3236.1146-79.899570412125Clb=5.4m/s Type=DFM17 ser=[BC]22042356 Details on http://radiosondy.info
W4DEX-14D220423562022-12-07 11:09:1736.1143-79.9013111372035Clb=5.8m/s Type=DFM17 ser=[BC]22042356 Details on http://radiosondy.info
W4DEX-14D220423562022-12-07 11:09:0236.1141-79.902863391944Clb=6.1m/s Type=DFM17 ser=[BC]22042356 Details on http://radiosondy.info
W4DEX-14D220423562022-12-07 11:08:4736.1139-79.904444411853Clb=4.7m/s Type=DFM17 ser=[BC]22042356 Details on http://radiosondy.info
W4DEX-14D220423562022-12-07 11:08:3236.1136-79.906177461761Clb=5.3m/s Type=DFM17 ser=[BC]22042356 Details on http://radiosondy.info
W4DEX-14D220423562022-12-07 11:08:1736.1133-79.9081102431672Clb=5.4m/s Type=DFM17 ser=[BC]22042356 Details on http://radiosondy.info
W4DEX-14D220423562022-12-07 11:08:0236.1129-79.9181461582Clb=5.1m/s Type=DFM17 ser=[BC]22042356 Details on http://radiosondy.info
W4DEX-14D220423562022-12-07 11:07:4736.1125-79.911843461495Clb=4.9m/s Type=DFM17 ser=[BC]22042356 Details on http://radiosondy.info
W4DEX-14D220423562022-12-07 11:07:3236.112-79.913893431410Clb=4.7m/s Type=DFM17 ser=[BC]22042356 Details on http://radiosondy.info
W4DEX-14D220423562022-12-07 11:07:1736.1114-79.915564541320Clb=5.0m/s Type=DFM17 ser=[BC]22042356 Details on http://radiosondy.info
W4DEX-14D220423562022-12-07 11:07:0236.1106-79.917896631232Clb=6.3m/s Type=DFM17 ser=[BC]22042356 Details on http://radiosondy.info
W4DEX-14D220423562022-12-07 11:06:4736.1098-79.920457671141Clb=6.7m/s Type=DFM17 ser=[BC]22042356 Details on http://radiosondy.info
W4DEX-14D220423562022-12-07 11:06:3236.1088-79.923262651052Clb=5.2m/s Type=DFM17 ser=[BC]22042356 Details on http://radiosondy.info
W4DEX-14D220423562022-12-07 11:06:0236.1063-79.92854569890Clb=6.0m/s Type=DFM Details on http://radiosondy.info
W4DEX-14D220423562022-12-07 11:05:4736.105-79.93126557797Clb=5.5m/s Type=DFM Details on http://radiosondy.info